Time;durP1;ratioP1;P1;durP2;ratioP2;P2;SDS_P1;SDS_P2;PMS_P1;PMS_P2;Temp;Humidity;BMP_temperature;BMP_pressure;BME280_temperature;BME280_humidity;BME280_pressure;Samples;Min_cycle;Max_cycle;Signal;HPM_P1;HPM_P2
2022/07/03 00:02:12;;;;;;;31.23;29.53;;;15.50;99.90;;;;;;4995857;28;20176;-70
2022/07/03 00:04:37;;;;;;;25.77;24.10;;;15.50;99.90;;;;;;4993760;28;20180;-71
2022/07/03 00:07:03;;;;;;;40.27;38.23;;;15.50;99.90;;;;;;4999330;28;20192;-71
2022/07/03 00:09:29;;;;;;;41.33;39.10;;;15.50;99.90;;;;;;4995772;28;20188;-72
2022/07/03 00:11:55;;;;;;;39.47;37.27;;;15.50;99.90;;;;;;4995208;28;20611;-70
2022/07/03 00:14:21;;;;;;;44.47;42.27;;;15.50;99.90;;;;;;4993614;28;20187;-70
2022/07/03 00:16:46;;;;;;;49.17;46.07;;;15.40;99.90;;;;;;4993529;28;20235;-71
2022/07/03 00:19:12;;;;;;;55.37;52.67;;;15.40;99.90;;;;;;4993371;28;20620;-71
2022/07/03 00:21:53;;;;;;;57.43;54.43;;;15.40;99.90;;;;;;4994445;28;20218;-71
2022/07/03 00:24:31;;;;;;;52.40;49.73;;;15.30;99.90;;;;;;4994761;28;20730;-71
2022/07/03 00:27:00;;;;;;;47.10;44.73;;;15.30;99.90;;;;;;4994939;28;20258;-70
2022/07/03 00:29:31;;;;;;;43.60;40.70;;;15.20;99.90;;;;;;4993831;28;20180;-71
2022/07/03 00:32:00;;;;;;;44.57;42.27;;;15.20;99.90;;;;;;4994311;28;20649;-72
2022/07/03 00:34:27;;;;;;;25.17;23.73;;;15.10;99.90;;;;;;4994111;28;20669;-72
2022/07/03 00:36:53;;;;;;;28.50;27.10;;;15.00;99.90;;;;;;4991906;28;20220;-72
2022/07/03 00:39:19;;;;;;;23.23;21.83;;;15.00;99.90;;;;;;4994042;28;20216;-71
2022/07/03 00:41:46;;;;;;;23.77;22.37;;;15.00;99.90;;;;;;4993970;28;20183;-71
2022/07/03 00:44:12;;;;;;;22.90;21.20;;;15.00;99.90;;;;;;4992722;28;20672;-71
2022/07/03 00:46:39;;;;;;;17.67;16.73;;;15.00;99.90;;;;;;4993653;28;20207;-72
2022/07/03 00:49:08;;;;;;;14.00;13.07;;;15.00;99.90;;;;;;4992069;28;20184;-71
2022/07/03 00:51:37;;;;;;;13.07;12.00;;;15.00;99.90;;;;;;4992771;28;20271;-71
2022/07/03 00:54:03;;;;;;;15.60;14.43;;;14.90;99.90;;;;;;4992707;28;20276;-72
2022/07/03 00:56:30;;;;;;;13.33;12.50;;;14.90;99.90;;;;;;4993439;28;20629;-71
2022/07/03 00:59:00;;;;;;;20.10;18.93;;;14.80;99.90;;;;;;4991254;28;20740;-72
2022/07/03 01:01:29;;;;;;;10.73;10.17;;;14.70;99.90;;;;;;4993424;28;20176;-71
2022/07/03 01:04:32;;;;;;;14.23;13.33;;;14.80;99.90;;;;;;4993626;28;20238;-71
2022/07/03 01:07:06;;;;;;;11.60;10.87;;;14.70;99.90;;;;;;4991544;28;20223;-71
2022/07/03 01:09:46;;;;;;;10.63;9.93;;;14.80;99.90;;;;;;4993648;28;20565;-71
2022/07/03 01:12:40;;;;;;;10.77;10.13;;;14.70;99.90;;;;;;4993707;28;20220;-71
2022/07/03 01:15:29;;;;;;;15.50;14.57;;;14.70;99.90;;;;;;4993963;28;20184;-71
2022/07/03 01:18:23;;;;;;;32.30;30.37;;;14.60;99.90;;;;;;4992679;28;20192;-71
2022/07/03 01:20:54;;;;;;;31.13;29.23;;;14.60;99.90;;;;;;4994248;28;20210;-70
2022/07/03 01:23:37;;;;;;;28.13;26.70;;;14.60;99.90;;;;;;4992284;28;20181;-71
2022/07/03 01:26:05;;;;;;;20.13;18.90;;;14.60;99.90;;;;;;4992834;28;20204;-70
2022/07/03 01:28:32;;;;;;;17.13;15.97;;;14.60;99.90;;;;;;4991022;28;20199;-72
2022/07/03 01:31:01;;;;;;;24.07;22.73;;;14.50;99.90;;;;;;4992857;28;20216;-71
2022/07/03 01:33:32;;;;;;;19.20;18.07;;;14.60;99.90;;;;;;4993053;28;20215;-71
2022/07/03 01:36:01;;;;;;;18.07;17.10;;;14.60;99.90;;;;;;4993054;28;20212;-71
2022/07/03 01:38:28;;;;;;;9.27;8.77;;;14.60;99.90;;;;;;4991014;28;20756;-71
2022/07/03 01:40:55;;;;;;;10.33;9.50;;;14.60;99.90;;;;;;4993073;28;20176;-71
2022/07/03 01:43:33;;;;;;;13.50;12.60;;;14.40;99.90;;;;;;4992782;28;20180;-70
2022/07/03 01:46:01;;;;;;;10.57;9.67;;;14.40;99.90;;;;;;4993109;28;20564;-71
2022/07/03 01:48:28;;;;;;;8.63;7.93;;;14.30;99.90;;;;;;4992196;28;20557;-71
2022/07/03 01:50:55;;;;;;;6.93;6.53;;;14.30;99.90;;;;;;4993151;28;20527;-70
2022/07/03 01:53:24;;;;;;;7.60;6.83;;;14.30;99.90;;;;;;4991370;28;20184;-70
2022/07/03 01:55:51;;;;;;;9.47;8.60;;;14.20;99.90;;;;;;4992612;28;20219;-71
2022/07/03 01:58:17;;;;;;;8.13;7.63;;;14.30;99.90;;;;;;4991515;28;20187;-71
2022/07/03 02:00:49;;;;;;;9.17;8.50;;;14.20;99.90;;;;;;4992572;28;20184;-71
2022/07/03 02:03:25;;;;;;;15.23;14.20;;;14.20;99.90;;;;;;4990768;28;20181;-70
2022/07/03 02:06:00;;;;;;;15.53;14.63;;;14.20;99.90;;;;;;4971939;28;20212;-70
2022/07/03 02:09:01;;;;;;;12.17;11.07;;;14.20;99.90;;;;;;4972218;28;20192;-71
2022/07/03 02:11:32;;;;;;;20.20;19.07;;;14.20;99.90;;;;;;4972007;28;20192;-71
2022/07/03 02:14:20;;;;;;;16.07;15.20;;;14.10;99.90;;;;;;4973246;28;20189;-71
2022/07/03 02:17:08;;;;;;;23.00;21.50;;;14.10;99.90;;;;;;4971942;28;20716;-69
2022/07/03 02:19:49;;;;;;;25.50;24.07;;;14.10;99.90;;;;;;4972826;28;20212;-70
2022/07/03 02:22:25;;;;;;;23.27;21.80;;;14.10;99.90;;;;;;4979068;28;20653;-70
2022/07/03 02:24:52;;;;;;;18.37;17.20;;;14.20;99.90;;;;;;4991959;28;20187;-70
2022/07/03 02:27:25;;;;;;;16.53;15.57;;;14.10;99.90;;;;;;4991435;28;20281;-70
2022/07/03 02:30:01;;;;;;;15.80;14.60;;;14.20;99.90;;;;;;4992222;28;20709;-70
2022/07/03 02:32:30;;;;;;;16.37;15.27;;;14.10;99.90;;;;;;4991837;28;20180;-70
2022/07/03 02:35:05;;;;;;;13.63;12.90;;;14.10;99.90;;;;;;4992165;28;20192;-70
2022/07/03 02:37:45;;;;;;;8.33;7.83;;;14.00;99.90;;;;;;4989829;28;20209;-69
2022/07/03 02:40:20;;;;;;;9.07;8.47;;;14.00;99.90;;;;;;4991829;28;20212;-70
2022/07/03 02:43:08;;;;;;;10.50;9.67;;;13.90;99.90;;;;;;4990531;28;20192;-70
2022/07/03 02:46:48;;;;;;;15.83;15.03;;;13.80;99.90;;;;;;4991067;28;20204;-70
2022/07/03 02:48:51;;;;;;;13.13;12.43;;;13.80;99.90;;;;;;4991145;28;20188;-70
2022/07/03 02:51:22;;;;;;;14.20;13.10;;;13.80;99.90;;;;;;4991142;28;20229;-70
2022/07/03 02:54:01;;;;;;;13.40;12.70;;;13.80;99.90;;;;;;4993430;28;20669;-70
2022/07/03 02:57:07;;;;;;;12.77;12.00;;;13.80;99.90;;;;;;4975211;28;20215;-70
2022/07/03 02:59:51;;;;;;;11.33;10.30;;;13.80;99.90;;;;;;4988630;28;20237;-70
2022/07/03 03:02:43;;;;;;;12.27;11.23;;;13.70;99.90;;;;;;4972836;28;20189;-70
2022/07/03 03:05:20;;;;;;;12.20;11.23;;;13.70;99.90;;;;;;4971147;28;20216;-70
2022/07/03 03:07:49;;;;;;;14.40;13.60;;;13.70;99.90;;;;;;4978235;28;20180;-71
2022/07/03 03:10:18;;;;;;;14.53;13.40;;;13.70;99.90;;;;;;5001769;28;20234;-70
2022/07/03 03:12:51;;;;;;;25.57;24.13;;;13.60;99.90;;;;;;5001360;28;20672;-70
2022/07/03 03:15:21;;;;;;;17.17;15.93;;;13.60;99.90;;;;;;4995870;28;20180;-70
2022/07/03 03:17:56;;;;;;;19.50;18.40;;;13.60;99.90;;;;;;4995500;28;20196;-70
2022/07/03 03:20:31;;;;;;;18.77;17.63;;;13.70;99.90;;;;;;4991690;28;20216;-70
2022/07/03 03:23:30;;;;;;;15.30;14.17;;;13.60;99.90;;;;;;4991998;28;20603;-70
2022/07/03 03:25:58;;;;;;;14.13;13.03;;;13.60;99.90;;;;;;4990198;28;20196;-70
2022/07/03 03:28:24;;;;;;;20.47;19.27;;;13.50;99.90;;;;;;4991137;28;20181;-70
2022/07/03 03:30:50;;;;;;;13.70;13.00;;;13.50;99.90;;;;;;4991830;28;20176;-72
2022/07/03 03:33:16;;;;;;;47.00;44.50;;;13.50;99.90;;;;;;4990508;28;20177;-70
2022/07/03 03:35:42;;;;;;;74.10;70.07;;;13.50;99.90;;;;;;4990466;28;20291;-70
2022/07/03 03:38:08;;;;;;;68.93;65.53;;;13.50;99.90;;;;;;4989624;28;20275;-70
2022/07/03 03:40:34;;;;;;;17.83;16.87;;;13.60;99.90;;;;;;4991851;28;20275;-71
2022/07/03 03:43:01;;;;;;;12.90;12.13;;;13.50;99.90;;;;;;4995342;28;20187;-70
2022/07/03 03:45:27;;;;;;;15.50;14.70;;;13.60;99.90;;;;;;4995294;28;20200;-70
2022/07/03 03:47:55;;;;;;;44.80;42.43;;;13.60;99.90;;;;;;4994488;28;20184;-70
2022/07/03 03:50:21;;;;;;;41.53;38.77;;;13.60;99.90;;;;;;4995235;28;20191;-70
2022/07/03 03:52:47;;;;;;;24.13;22.63;;;13.70;99.90;;;;;;4995202;28;20184;-70
2022/07/03 03:55:13;;;;;;;13.50;12.60;;;13.70;99.90;;;;;;4994935;28;20184;-70
2022/07/03 03:57:38;;;;;;;12.47;11.67;;;13.70;99.90;;;;;;4994323;28;20610;-71
2022/07/03 04:00:06;;;;;;;13.47;12.47;;;13.80;99.90;;;;;;4995012;28;20212;-70
2022/07/03 04:02:32;;;;;;;14.03;13.23;;;13.80;99.90;;;;;;4994950;28;20243;-70
2022/07/03 04:04:58;;;;;;;14.90;13.90;;;13.90;99.90;;;;;;4993970;28;20653;-70
2022/07/03 04:07:24;;;;;;;16.27;15.33;;;14.00;99.90;;;;;;4994087;28;20211;-70
2022/07/03 04:09:50;;;;;;;14.03;13.23;;;14.00;99.90;;;;;;4994584;28;20188;-70
2022/07/03 04:12:15;;;;;;;13.30;12.30;;;14.00;99.90;;;;;;4994897;28;20181;-70
2022/07/03 04:14:42;;;;;;;12.83;12.03;;;14.10;99.90;;;;;;4993946;28;20196;-70
2022/07/03 04:17:07;;;;;;;13.60;12.80;;;14.10;99.90;;;;;;4992992;28;20224;-70
2022/07/03 04:19:33;;;;;;;13.83;12.73;;;14.10;99.90;;;;;;4993690;28;20697;-69
2022/07/03 04:21:59;;;;;;;12.57;11.90;;;14.20;99.90;;;;;;4994694;28;20227;-71
2022/07/03 04:24:25;;;;;;;15.20;14.10;;;14.20;99.90;;;;;;4995296;28;20185;-71
2022/07/03 04:26:51;;;;;;;16.43;15.63;;;14.30;99.90;;;;;;4992964;28;20227;-71
2022/07/03 04:29:17;;;;;;;15.10;14.30;;;14.30;99.90;;;;;;4994309;28;20267;-71
2022/07/03 04:31:43;;;;;;;14.30;13.40;;;14.30;99.90;;;;;;4994993;28;20276;-71
2022/07/03 04:34:08;;;;;;;13.03;12.03;;;14.40;99.90;;;;;;4996119;28;20191;-71
2022/07/03 04:36:34;;;;;;;12.37;11.77;;;14.60;99.90;;;;;;4995084;28;20685;-71
2022/07/03 04:39:00;;;;;;;11.63;10.73;;;14.60;99.90;;;;;;4994088;28;20212;-71
2022/07/03 04:41:26;;;;;;;9.53;8.80;;;14.70;99.90;;;;;;4993432;28;20183;-71
2022/07/03 04:43:52;;;;;;;8.43;7.40;;;14.70;99.90;;;;;;4993115;28;20198;-72
2022/07/03 04:46:17;;;;;;;9.67;8.67;;;14.80;99.90;;;;;;4994149;28;20200;-71
2022/07/03 04:48:43;;;;;;;10.60;9.90;;;14.90;99.90;;;;;;4993212;28;20776;-71
2022/07/03 04:51:09;;;;;;;18.20;17.13;;;15.00;99.90;;;;;;4993792;28;20211;-71
2022/07/03 04:53:35;;;;;;;21.13;20.03;;;15.20;99.90;;;;;;4994093;28;20602;-70
2022/07/03 04:56:00;;;;;;;8.10;7.57;;;15.30;99.90;;;;;;4992992;28;20300;-70
2022/07/03 04:58:26;;;;;;;8.73;6.27;;;15.40;99.90;;;;;;4993069;28;20204;-71
2022/07/03 05:00:52;;;;;;;8.50;8.10;;;15.60;99.90;;;;;;4992902;28;20549;-71
2022/07/03 05:03:18;;;;;;;18.83;17.93;;;15.70;99.90;;;;;;4993817;28;20177;-72
2022/07/03 05:05:43;;;;;;;8.73;8.23;;;15.90;99.90;;;;;;4992472;28;20200;-72
2022/07/03 05:08:09;;;;;;;31.27;29.70;;;16.20;99.90;;;;;;4991388;28;20700;-71
2022/07/03 05:10:35;;;;;;;9.27;8.60;;;16.50;99.90;;;;;;4992762;28;20649;-69
2022/07/03 05:13:01;;;;;;;29.40;27.93;;;17.10;99.90;;;;;;4993868;28;20270;-70
2022/07/03 05:17:58;;;;;;;58.47;55.70;;;18.50;99.90;;;;;;4989377;28;20216;-70
2022/07/03 05:20:23;;;;;;;11.63;10.90;;;19.20;99.90;;;;;;4980850;28;20235;-70
2022/07/03 05:22:50;;;;;;;6.97;6.40;;;19.90;99.90;;;;;;4972822;28;20173;-69
2022/07/03 05:25:16;;;;;;;9.82;9.35;;;20.40;99.90;;;;;;4980652;28;20235;-69
2022/07/03 05:27:42;;;;;;;7.30;7.00;;;21.00;99.90;;;;;;4991158;28;20244;-69
2022/07/03 05:30:08;;;;;;;7.18;6.78;;;21.40;99.90;;;;;;4993212;28;20188;-69
2022/07/03 05:32:34;;;;;;;6.60;6.20;;;21.90;99.90;;;;;;4993221;28;20211;-69
2022/07/03 05:35:00;;;;;;;10.95;10.35;;;22.10;99.90;;;;;;4993015;28;20789;-69
2022/07/03 05:37:26;;;;;;;9.98;9.48;;;22.20;99.90;;;;;;4991900;28;20223;-72
2022/07/03 05:39:52;;;;;;;11.73;10.70;;;22.10;99.90;;;;;;4992966;28;20215;-72
2022/07/03 05:42:18;;;;;;;16.88;15.98;;;22.20;99.90;;;;;;4993013;28;20187;-69
2022/07/03 05:44:43;;;;;;;19.20;18.08;;;22.10;99.90;;;;;;4992617;28;20180;-71
2022/07/03 05:47:09;;;;;;;29.88;28.27;;;22.10;99.90;;;;;;4992136;28;20710;-71
2022/07/03 05:49:35;;;;;;;28.17;26.58;;;22.30;99.90;;;;;;4992793;28;20608;-72
2022/07/03 05:52:00;;;;;;;28.05;26.73;;;22.50;99.90;;;;;;4992466;28;20188;-70
2022/07/03 05:54:26;;;;;;;24.38;22.92;;;22.90;99.90;;;;;;4992848;28;20243;-70
2022/07/03 05:56:52;;;;;;;18.45;17.55;;;23.30;99.90;;;;;;5007182;28;20339;-70
2022/07/03 05:59:18;;;;;;;8.35;7.78;;;23.60;99.90;;;;;;4992219;28;20617;-70
2022/07/03 06:01:44;;;;;;;5.40;5.18;;;24.20;99.90;;;;;;4991399;28;20299;-69
2022/07/03 06:04:09;;;;;;;3.85;3.65;;;24.70;99.90;;;;;;4997242;28;20214;-70
2022/07/03 06:06:35;;;;;;;4.78;4.47;;;24.90;99.90;;;;;;5005325;28;20569;-70
2022/07/03 06:09:01;;;;;;;4.10;3.90;;;25.00;99.90;;;;;;4991327;28;20184;-70
2022/07/03 06:11:27;;;;;;;4.32;4.13;;;25.20;99.90;;;;;;4992398;28;20188;-70
2022/07/03 06:13:53;;;;;;;4.82;4.43;;;25.90;99.90;;;;;;4987336;28;20319;-70
2022/07/03 06:16:18;;;;;;;4.30;3.92;;;25.70;99.90;;;;;;4973359;28;20240;-70
2022/07/03 06:18:44;;;;;;;3.60;3.40;;;25.60;99.90;;;;;;4986743;28;20200;-70
2022/07/03 06:21:10;;;;;;;4.60;4.20;;;25.60;99.90;;;;;;4971844;28;20265;-70
2022/07/03 06:23:36;;;;;;;4.72;4.32;;;25.90;99.90;;;;;;4972723;28;20239;-70
2022/07/03 06:26:02;;;;;;;7.75;7.38;;;25.70;99.90;;;;;;4972540;28;20270;-71
2022/07/03 06:28:27;;;;;;;4.20;4.00;;;26.00;99.90;;;;;;4980425;28;20324;-71
2022/07/03 06:30:53;;;;;;;5.22;4.97;;;25.90;99.90;;;;;;4992053;28;20188;-71
2022/07/03 06:33:19;;;;;;;7.50;7.20;;;26.10;99.90;;;;;;4991360;28;20200;-71
2022/07/03 06:35:45;;;;;;;19.70;18.73;;;26.30;99.90;;;;;;4991278;28;20847;-71
2022/07/03 06:38:11;;;;;;;11.60;11.00;;;26.80;99.90;;;;;;4991015;28;20180;-71
2022/07/03 06:40:36;;;;;;;6.53;6.22;;;27.10;99.90;;;;;;4991879;28;20564;-71
2022/07/03 06:43:02;;;;;;;5.75;5.55;;;27.60;99.90;;;;;;4990506;28;20256;-71
2022/07/03 06:45:28;;;;;;;5.80;5.55;;;27.80;99.90;;;;;;4991440;28;20191;-71
2022/07/03 06:47:54;;;;;;;4.93;4.72;;;28.30;99.90;;;;;;4990680;28;20235;-71
2022/07/03 06:50:20;;;;;;;4.88;4.68;;;28.60;99.00;;;;;;4994178;28;20203;-71
2022/07/03 06:52:45;;;;;;;5.50;5.10;;;28.90;96.90;;;;;;5009882;28;20266;-71
2022/07/03 06:55:11;;;;;;;7.72;5.80;;;28.70;96.60;;;;;;5009855;28;20183;-71
2022/07/03 06:57:37;;;;;;;9.73;9.13;;;29.00;95.90;;;;;;4993414;28;20269;-71
2022/07/03 07:00:04;;;;;;;10.10;9.35;;;29.60;94.90;;;;;;4991604;28;20235;-71
2022/07/03 07:02:29;;;;;;;12.85;12.20;;;29.50;93.40;;;;;;4991732;28;20214;-71
2022/07/03 07:04:55;;;;;;;12.48;11.77;;;29.20;93.70;;;;;;4991727;28;20208;-71
2022/07/03 07:07:21;;;;;;;9.45;8.80;;;29.60;94.00;;;;;;4990589;28;20204;-71
2022/07/03 07:09:47;;;;;;;8.18;7.78;;;29.90;92.40;;;;;;4991380;28;20184;-71
2022/07/03 07:12:12;;;;;;;6.72;6.32;;;30.10;91.70;;;;;;4990962;28;20187;-72
2022/07/03 07:14:38;;;;;;;5.95;5.55;;;30.00;91.00;;;;;;4991601;28;20196;-72
2022/07/03 07:17:04;;;;;;;4.80;4.60;;;30.10;91.40;;;;;;4993736;28;20227;-72
2022/07/03 07:19:30;;;;;;;5.55;5.35;;;30.10;90.30;;;;;;4995636;28;20208;-72
2022/07/03 07:21:55;;;;;;;6.75;6.40;;;29.90;89.40;;;;;;4996147;28;20195;-72
2022/07/03 07:24:21;;;;;;;5.22;5.03;;;29.80;91.60;;;;;;4996006;28;20199;-75
2022/07/03 07:26:47;;;;;;;4.95;4.65;;;29.80;90.80;;;;;;4995383;28;20199;-78
2022/07/03 07:29:13;;;;;;;9.88;9.25;;;29.90;90.50;;;;;;4988642;28;20271;-77
2022/07/03 07:31:38;;;;;;;19.45;18.40;;;30.20;89.10;;;;;;4986794;28;20189;-76
2022/07/03 07:34:04;;;;;;;22.65;21.60;;;30.40;87.10;;;;;;4974225;28;20236;-76
2022/07/03 07:36:31;;;;;;;22.15;21.02;;;30.50;86.70;;;;;;4991916;28;20199;-76
2022/07/03 07:38:57;;;;;;;32.33;30.75;;;30.60;87.30;;;;;;4994046;28;20290;-76
2022/07/03 07:41:23;;;;;;;29.30;27.95;;;30.90;85.10;;;;;;4994119;28;20180;-76
2022/07/03 07:43:49;;;;;;;19.08;18.10;;;30.90;84.70;;;;;;4993967;28;20561;-77
2022/07/03 07:46:14;;;;;;;24.45;22.90;;;30.80;84.40;;;;;;4995598;28;20196;-77
2022/07/03 07:48:41;;;;;;;19.23;18.27;;;30.60;86.10;;;;;;5009549;28;20165;-77
2022/07/03 07:51:07;;;;;;;20.23;19.05;;;30.50;84.90;;;;;;5000679;28;20180;-76
2022/07/03 07:53:33;;;;;;;15.10;14.43;;;30.60;84.40;;;;;;4995809;28;20275;-77
2022/07/03 07:55:58;;;;;;;15.10;14.48;;;30.70;83.00;;;;;;4997030;28;20208;-78
2022/07/03 07:58:24;;;;;;;15.93;14.77;;;30.70;83.70;;;;;;4998711;28;20185;-80
2022/07/03 08:06:19;;;;;;;10.75;10.32;;;30.50;82.90;;;;;;4998103;28;20200;-78
2022/07/03 08:08:45;;;;;;;14.60;13.82;;;30.80;80.90;;;;;;4997256;28;20191;-80
2022/07/03 08:11:10;;;;;;;22.65;21.45;;;30.80;81.70;;;;;;5000697;28;20188;-78
2022/07/03 08:13:36;;;;;;;25.88;24.63;;;31.10;80.60;;;;;;4998793;28;20238;-80
2022/07/03 08:16:02;;;;;;;51.38;48.88;;;31.40;79.00;;;;;;4999009;28;20270;-79
2022/07/03 08:18:28;;;;;;;54.75;51.83;;;31.60;77.30;;;;;;5018027;28;20199;-78
2022/07/03 08:20:53;;;;;;;56.28;53.42;;;31.50;77.00;;;;;;5014455;28;20185;-77
2022/07/03 08:23:19;;;;;;;48.88;46.53;;;31.60;77.10;;;;;;4997823;28;20278;-83
2022/07/03 08:25:45;;;;;;;42.35;40.13;;;31.50;78.40;;;;;;4992806;28;20191;-77
2022/07/03 08:28:11;;;;;;;94.90;90.28;;;31.70;77.80;;;;;;4993271;28;20176;-78
2022/07/03 08:30:37;;;;;;;126.47;120.40;;;31.90;74.90;;;;;;4995087;28;20191;-78
2022/07/03 08:33:03;;;;;;;129.00;122.88;;;32.30;75.40;;;;;;4994810;28;20180;-78
2022/07/03 08:35:29;;;;;;;144.48;137.48;;;32.40;75.30;;;;;;5010843;28;20218;-79
2022/07/03 08:37:55;;;;;;;157.40;150.00;;;32.40;73.60;;;;;;4994253;28;20228;-79
2022/07/03 08:40:22;;;;;;;178.38;169.93;;;32.40;71.40;;;;;;4990589;28;20905;-80
2022/07/03 08:42:53;;;;;;;169.48;161.18;;;32.60;73.90;;;;;;5010556;28;20177;-79
2022/07/03 08:45:20;;;;;;;179.35;170.93;;;32.40;68.20;;;;;;5004841;28;20192;-76
2022/07/03 08:47:47;;;;;;;181.32;172.70;;;32.50;66.40;;;;;;5009939;28;20566;-76
2022/07/03 08:50:16;;;;;;;187.57;178.65;;;32.40;65.50;;;;;;5011738;28;20179;-76
2022/07/03 08:52:47;;;;;;;202.07;192.35;;;32.60;64.90;;;;;;5025155;28;20687;-76
2022/07/03 08:55:14;;;;;;;171.85;163.57;;;32.40;64.30;;;;;;5009452;28;20204;-77
2022/07/03 08:57:41;;;;;;;178.93;170.05;;;32.50;65.70;;;;;;4993014;28;20343;-76
2022/07/03 09:00:13;;;;;;;174.15;165.27;;;32.70;64.30;;;;;;4993710;28;20282;-76
2022/07/03 09:02:44;;;;;;;176.10;165.35;;;32.70;63.50;;;;;;4994854;28;20649;-77
2022/07/03 09:05:14;;;;;;;157.52;150.00;;;32.50;66.50;;;;;;4993550;28;20220;-78
2022/07/03 09:07:41;;;;;;;141.48;134.85;;;32.40;65.30;;;;;;4995143;28;20699;-78
2022/07/03 09:10:12;;;;;;;169.55;161.45;;;32.60;62.90;;;;;;4993121;28;20218;-76
2022/07/03 09:12:39;;;;;;;137.10;130.57;;;32.80;64.30;;;;;;4993022;28;20605;-77
2022/07/03 09:15:06;;;;;;;148.43;141.32;;;32.80;63.10;;;;;;4991582;28;20276;-77
2022/07/03 09:17:32;;;;;;;149.98;142.55;;;33.00;61.90;;;;;;4991132;28;20224;-75
2022/07/03 09:20:00;;;;;;;197.10;187.65;;;33.00;59.60;;;;;;4991768;28;20715;-76
2022/07/03 09:22:28;;;;;;;175.10;166.82;;;32.50;56.60;;;;;;5008287;28;20177;-75
2022/07/03 09:25:03;;;;;;;149.27;142.27;;;32.60;59.00;;;;;;4993120;28;20203;-75
2022/07/03 09:27:30;;;;;;;130.48;124.38;;;33.00;61.00;;;;;;4997691;28;20203;-76
2022/07/03 09:30:14;;;;;;;174.40;166.15;;;33.10;60.90;;;;;;5005971;28;20180;-75
2022/07/03 09:32:48;;;;;;;192.30;183.13;;;33.30;55.10;;;;;;4993727;28;20207;-76
2022/07/03 09:35:23;;;;;;;153.18;145.88;;;33.30;54.90;;;;;;4992427;28;20694;-77
2022/07/03 09:37:58;;;;;;;147.75;140.60;;;33.30;56.00;;;;;;4992438;28;20211;-75
2022/07/03 09:40:26;;;;;;;163.85;155.95;;;33.80;57.20;;;;;;4992795;28;20218;-77
2022/07/03 09:42:58;;;;;;;305.30;290.27;;;33.80;56.80;;;;;;4991726;28;20416;-76
2022/07/03 09:45:24;;;;;;;216.77;206.57;;;33.50;55.90;;;;;;4992210;28;20210;-77
2022/07/03 09:47:50;;;;;;;189.25;180.18;;;33.50;54.00;;;;;;4990909;28;20203;-77
2022/07/03 09:50:16;;;;;;;205.85;195.90;;;33.40;54.80;;;;;;4993370;28;20181;-77
2022/07/03 09:52:44;;;;;;;184.82;175.60;;;33.20;56.10;;;;;;4992446;28;20224;-76
2022/07/03 09:55:10;;;;;;;163.68;155.90;;;33.30;52.70;;;;;;4992794;28;20189;-76
2022/07/03 09:57:37;;;;;;;154.73;147.05;;;33.60;53.20;;;;;;4992032;28;20210;-77
2022/07/03 10:00:20;;;;;;;168.10;159.95;;;33.70;52.50;;;;;;4992714;28;20279;-76
2022/07/03 10:03:01;;;;;;;152.55;145.38;;;34.00;53.90;;;;;;5007864;28;20190;-77
2022/07/03 10:05:35;;;;;;;149.05;142.02;;;33.70;52.00;;;;;;4993332;28;20900;-77
2022/07/03 10:08:04;;;;;;;182.25;173.63;;;33.40;52.70;;;;;;4998914;28;20681;-77
2022/07/03 10:10:33;;;;;;;169.38;161.35;;;33.50;55.30;;;;;;5010823;28;20188;-75
2022/07/03 10:13:00;;;;;;;153.10;145.90;;;33.80;55.60;;;;;;5008997;28;20188;-77
2022/07/03 10:15:28;;;;;;;192.20;182.90;;;34.00;52.50;;;;;;5009485;28;20670;-74
2022/07/03 10:17:58;;;;;;;184.60;175.65;;;34.10;62.30;;;;;;4993097;28;20211;-75
2022/07/03 10:20:50;;;;;;;142.52;135.52;;;34.40;54.00;;;;;;5007821;28;20235;-76
2022/07/03 10:23:20;;;;;;;114.80;109.40;;;34.90;53.10;;;;;;4972544;28;20192;-76
2022/07/03 10:25:47;;;;;;;145.25;138.35;;;34.70;51.90;;;;;;4972059;28;20563;-76
2022/07/03 10:28:13;;;;;;;191.98;182.88;;;34.50;54.00;;;;;;4971957;28;20185;-75
2022/07/03 10:30:42;;;;;;;189.20;179.90;;;34.10;53.80;;;;;;4972771;28;20667;-75
2022/07/03 10:33:08;;;;;;;177.95;169.15;;;34.10;53.60;;;;;;4971552;28;20192;-74
2022/07/03 10:35:36;;;;;;;177.38;168.50;;;34.00;53.50;;;;;;4978164;28;20192;-74
2022/07/03 10:38:02;;;;;;;198.27;188.18;;;34.40;54.90;;;;;;4990019;28;20203;-75
2022/07/03 10:46:16;;;;;;;140.05;133.35;;;34.00;50.20;;;;;;4991819;28;20212;-75
2022/07/03 10:49:05;;;;;;;156.88;148.90;;;34.00;51.70;;;;;;4991218;28;20191;-76
2022/07/03 10:51:52;;;;;;;119.10;113.18;;;34.60;51.40;;;;;;5006636;28;20538;-76
2022/07/03 10:54:19;;;;;;;130.23;123.68;;;34.70;51.00;;;;;;4992197;28;20271;-78
2022/07/03 10:57:00;;;;;;;112.15;106.75;;;34.70;51.80;;;;;;4991568;28;20203;-74
2022/07/03 10:59:32;;;;;;;103.45;96.20;;;34.90;54.30;;;;;;4990555;28;20315;-77
2022/07/03 11:02:20;;;;;;;36.50;34.83;;;35.20;51.50;;;;;;4991040;28;20238;-76
2022/07/03 11:07:34;;;;;;;116.10;110.20;;;35.00;50.10;;;;;;5010909;28;20231;-75
2022/07/03 11:10:12;;;;;;;71.07;67.75;;;34.70;52.60;;;;;;5011244;28;20184;-75
2022/07/03 11:13:00;;;;;;;86.72;82.70;;;34.60;50.10;;;;;;5007591;28;20180;-76
2022/07/03 11:15:29;;;;;;;40.97;29.80;;;35.20;51.20;;;;;;4992998;28;20545;-77
2022/07/03 11:18:15;;;;;;;18.08;17.27;;;35.80;49.60;;;;;;5029037;23;20255;-80
2022/07/03 11:20:44;;;;;;;14.10;13.50;;;35.80;48.60;;;;;;4995827;28;20219;-80
2022/07/03 11:23:09;;;;;;;8.15;7.78;;;36.30;46.10;;;;;;4996690;28;20169;-82
2022/07/03 11:25:44;;;;;;;8.10;7.70;;;36.50;46.70;;;;;;4999111;28;20223;-83
2022/07/03 11:28:33;;;;;;;8.55;8.18;;;36.70;46.30;;;;;;4993526;28;20207;-84
2022/07/03 11:31:08;;;;;;;5.90;5.45;;;36.80;49.00;;;;;;4990595;28;20224;-83
2022/07/03 11:33:42;;;;;;;8.00;7.57;;;36.40;48.00;;;;;;4993020;28;20196;-79
2022/07/03 11:36:14;;;;;;;4.95;4.75;;;36.30;49.30;;;;;;4986882;28;20214;-76
2022/07/03 11:38:40;;;;;;;4.38;4.18;;;36.30;46.60;;;;;;5004614;28;20200;-77
2022/07/03 11:41:11;;;;;;;3.05;2.95;;;36.80;45.20;;;;;;4992346;28;20181;-76
2022/07/03 11:43:37;;;;;;;2.53;2.53;;;37.40;43.30;;;;;;4992438;28;20184;-77
2022/07/03 11:46:04;;;;;;;5.25;2.88;;;37.70;43.60;;;;;;4995302;28;20653;-77
2022/07/03 11:48:30;;;;;;;2.92;2.72;;;37.70;43.50;;;;;;5012822;28;20200;-77
2022/07/03 11:51:04;;;;;;;2.53;2.47;;;37.90;42.90;;;;;;4996275;28;20275;-76
2022/07/03 11:53:34;;;;;;;3.53;3.03;;;37.80;44.30;;;;;;4993816;28;20203;-77
2022/07/03 11:56:04;;;;;;;3.80;2.83;;;38.00;45.90;;;;;;5001691;28;20176;-76
2022/07/03 11:58:50;;;;;;;4.03;3.92;;;37.50;46.40;;;;;;4998458;28;20204;-79
2022/07/03 12:01:22;;;;;;;2.80;2.70;;;37.00;43.60;;;;;;5003477;28;20247;-77
2022/07/03 12:03:51;;;;;;;5.72;2.40;;;37.00;45.00;;;;;;4997081;28;20239;-79
2022/07/03 12:06:18;;;;;;;4.28;4.10;;;36.80;45.80;;;;;;4982973;28;20192;-76
2022/07/03 12:08:47;;;;;;;4.40;4.13;;;37.50;43.10;;;;;;4977632;28;20227;-77
2022/07/03 12:11:16;;;;;;;2.85;2.65;;;37.50;43.70;;;;;;4978151;28;20554;-78
2022/07/03 12:13:42;;;;;;;2.10;2.10;;;37.60;43.40;;;;;;5004073;28;20551;-76
2022/07/03 12:16:15;;;;;;;2.60;2.50;;;38.10;42.00;;;;;;4995587;28;20184;-77
2022/07/03 12:18:47;;;;;;;2.35;2.25;;;37.40;42.20;;;;;;4994668;28;20216;-76
2022/07/03 12:21:14;;;;;;;2.83;2.72;;;38.10;41.40;;;;;;4993044;28;20657;-77
2022/07/03 12:23:54;;;;;;;2.65;2.55;;;38.50;40.70;;;;;;4992643;28;20199;-77
2022/07/03 12:26:47;;;;;;;2.47;2.38;;;38.60;42.80;;;;;;4997945;28;20535;-76
2022/07/03 12:29:15;;;;;;;4.22;4.05;;;37.80;41.00;;;;;;4974710;28;20220;-76
2022/07/03 12:31:46;;;;;;;3.20;3.03;;;37.60;41.40;;;;;;4975953;28;20620;-76
2022/07/03 12:34:13;;;;;;;4.10;3.55;;;37.50;41.40;;;;;;4974640;28;20193;-76
2022/07/03 12:36:39;;;;;;;2.85;2.75;;;38.00;41.60;;;;;;4974607;28;20189;-76
2022/07/03 12:39:05;;;;;;;2.63;2.53;;;37.10;42.50;;;;;;4981269;28;20217;-77
2022/07/03 12:41:32;;;;;;;4.30;3.97;;;37.30;42.90;;;;;;4984068;28;20263;-77
2022/07/03 12:43:59;;;;;;;3.42;3.33;;;38.30;41.80;;;;;;4995701;28;20198;-77
2022/07/03 12:46:28;;;;;;;2.78;2.35;;;38.50;40.10;;;;;;4996325;28;20181;-77
2022/07/03 12:48:56;;;;;;;2.03;2.03;;;38.40;42.20;;;;;;4996536;28;20301;-78
2022/07/03 12:51:42;;;;;;;3.05;2.95;;;38.50;42.70;;;;;;4998929;28;20605;-77
2022/07/03 12:54:11;;;;;;;3.10;2.72;;;39.20;40.60;;;;;;4996772;28;20193;-76
2022/07/03 12:56:37;;;;;;;3.50;3.20;;;40.00;40.30;;;;;;4994072;28;20641;-78
2022/07/03 12:59:18;;;;;;;2.28;2.05;;;40.30;37.50;;;;;;4993744;28;20213;-77
2022/07/03 13:01:59;;;;;;;5.63;5.15;;;40.30;36.80;;;;;;4997271;28;20184;-77